Observation data for Denver City on 01/17/2021      Previous  Date  Next       Current Mesonet Observations  Soil Data  Daily Summary Page  Observations in Plain Language
KDVS 170600Z 31006KT M01/M04 A3012 RMK A01 T10101040  RH  080%=      5-min Rain = 0
KDVS 170605Z 32005KT M01/M04 A3012 RMK A01 T10111041  RH  080%=      5-min Rain = 0
KDVS 170610Z 32006KT M01/M04 A3011 RMK A01 T10101041  RH  080%=      5-min Rain = 0
KDVS 170615Z 33004KT M01/M04 A3011 RMK A01 T10091042  RH  078%=      5-min Rain = 0
KDVS 170620Z 31005KT M01/M04 A3011 RMK A01 T10081044  RH  077%=      5-min Rain = 0
KDVS 170625Z 31006KT M01/M04 A3011 RMK A01 T10131044  RH  080%=      5-min Rain = 0
KDVS 170630Z 31007KT M02/M05 A3012 RMK A01 T10171045  RH  082%=      5-min Rain = 0
KDVS 170635Z 31008KT M02/M05 A3012 RMK A01 T10211046  RH  083%=      5-min Rain = 0
KDVS 170640Z 31007KT M02/M04 A3012 RMK A01 T10221044  RH  085%=      5-min Rain = 0
KDVS 170645Z 29008KT M02/M04 A3012 RMK A01 T10201043  RH  085%=      5-min Rain = 0
KDVS 170650Z 29010KT M02/M04 A3012 RMK A01 T10201043  RH  084%=      5-min Rain = 0
KDVS 170655Z 28010KT M02/M04 A3012 RMK A01 T10191043  RH  084%=      5-min Rain = 0
KDVS 170700Z 29011KT M02/M04 A3012 RMK A01 T10171043  RH  083%=      5-min Rain = 0
KDVS 170705Z 29010KT M02/M04 A3012 RMK A01 T10161044  RH  082%=      5-min Rain = 0
KDVS 170710Z 30011KT M02/M05 A3013 RMK A01 T10181045  RH  082%=      5-min Rain = 0
KDVS 170715Z 30011KT M02/M04 A3013 RMK A01 T10151044  RH  081%=      5-min Rain = 0
KDVS 170720Z 30011KT M01/M04 A3013 RMK A01 T10131044  RH  079%=      5-min Rain = 0
KDVS 170725Z 30010KT M01/M04 A3013 RMK A01 T10131044  RH  080%=      5-min Rain = 0
KDVS 170730Z 31009KT M01/M04 A3012 RMK A01 T10121044  RH  080%=      5-min Rain = 0
KDVS 170735Z 31008KT M01/M04 A3012 RMK A01 T10131044  RH  080%=      5-min Rain = 0
KDVS 170740Z 31008KT M01/M04 A3012 RMK A01 T10121044  RH  079%=      5-min Rain = 0
KDVS 170745Z 31007KT M01/M05 A3012 RMK A01 T10111046  RH  078%=      5-min Rain = 0
KDVS 170750Z 30008KT M01/M05 A3012 RMK A01 T10131045  RH  079%=      5-min Rain = 0
KDVS 170755Z 30009KT M01/M05 A3013 RMK A01 T10141046  RH  079%=      5-min Rain = 0
KDVS 170800Z 31009KT M02/M05 A3013 RMK A01 T10151046  RH  080%=      5-min Rain = 0
KDVS 170805Z 31009KT M01/M05 A3013 RMK A01 T10141046  RH  079%=      5-min Rain = 0
KDVS 170810Z 31009KT M01/M05 A3013 RMK A01 T10121047  RH  077%=      5-min Rain = 0
KDVS 170815Z 31008KT M01/M05 A3012 RMK A01 T10121048  RH  077%=      5-min Rain = 0
KDVS 170820Z 31007KT M01/M05 A3012 RMK A01 T10131049  RH  077%=      5-min Rain = 0
KDVS 170825Z 31008KT M02/M05 A3012 RMK A01 T10151049  RH  078%=      5-min Rain = 0
KDVS 170830Z 30007KT M02/M05 A3012 RMK A01 T10171049  RH  079%=      5-min Rain = 0
KDVS 170835Z 30007KT M02/M05 A3012 RMK A01 T10221049  RH  082%=      5-min Rain = 0
KDVS 170840Z 30008KT M03/M05 A3012 RMK A01 T10251049  RH  084%=      5-min Rain = 0
KDVS 170845Z 31008KT M03/M05 A3012 RMK A01 T10261049  RH  084%=      5-min Rain = 0
KDVS 170850Z 30008KT M03/M05 A3012 RMK A01 T10251048  RH  084%=      5-min Rain = 0
KDVS 170855Z 30007KT M03/M05 A3012 RMK A01 T10251048  RH  084%=      5-min Rain = 0
KDVS 170900Z 30008KT M03/M05 A3012 RMK A01 T10251049  RH  084%=      5-min Rain = 0
KDVS 170905Z 30008KT M03/M05 A3012 RMK A01 T10261049  RH  084%=      5-min Rain = 0
KDVS 170910Z 30008KT M03/M05 A3012 RMK A01 T10271050  RH  084%=      5-min Rain = 0
KDVS 170915Z 30008KT M03/M05 A3012 RMK A01 T10291051  RH  085%=      5-min Rain = 0
KDVS 170920Z 30008KT M03/M05 A3012 RMK A01 T10301051  RH  086%=      5-min Rain = 0
KDVS 170925Z 30008KT M03/M05 A3012 RMK A01 T10291050  RH  086%=      5-min Rain = 0
KDVS 170930Z 30008KT M03/M05 A3012 RMK A01 T10281049  RH  086%=      5-min Rain = 0
KDVS 170935Z 30008KT M03/M05 A3012 RMK A01 T10281050  RH  085%=      5-min Rain = 0
KDVS 170940Z 30008KT M03/M05 A3011 RMK A01 T10291050  RH  085%=      5-min Rain = 0
KDVS 170945Z 30007KT M03/M05 A3011 RMK A01 T10291050  RH  086%=      5-min Rain = 0
KDVS 170950Z 31008KT M03/M05 A3011 RMK A01 T10301050  RH  086%=      5-min Rain = 0
KDVS 170955Z 31008KT M03/M05 A3011 RMK A01 T10301050  RH  087%=      5-min Rain = 0
KDVS 171000Z 31008KT M03/M05 A3011 RMK A01 T10311050  RH  087%=      5-min Rain = 0
KDVS 171005Z 31008KT M03/M05 A3011 RMK A01 T10301050  RH  087%=      5-min Rain = 0
KDVS 171010Z 31008KT M03/M05 A3011 RMK A01 T10281051  RH  085%=      5-min Rain = 0
KDVS 171015Z 30007KT M03/M05 A3011 RMK A01 T10281053  RH  084%=      5-min Rain = 0
KDVS 171020Z 30007KT M03/M05 A3011 RMK A01 T10311054  RH  084%=      5-min Rain = 0
KDVS 171025Z 31008KT M03/M05 A3011 RMK A01 T10321054  RH  085%=      5-min Rain = 0
KDVS 171030Z 31008KT M03/M05 A3011 RMK A01 T10331053  RH  086%=      5-min Rain = 0
KDVS 171035Z 30008KT M03/M05 A3011 RMK A01 T10331053  RH  086%=      5-min Rain = 0
KDVS 171040Z 30008KT M03/M05 A3011 RMK A01 T10321053  RH  086%=      5-min Rain = 0
KDVS 171045Z 30008KT M03/M05 A3011 RMK A01 T10321054  RH  085%=      5-min Rain = 0
KDVS 171050Z 30007KT M03/M06 A3011 RMK A01 T10331055  RH  085%=      5-min Rain = 0
KDVS 171055Z 29007KT M03/M06 A3011 RMK A01 T10341056  RH  085%=      5-min Rain = 0
KDVS 171100Z 30007KT M04/M06 A3011 RMK A01 T10351056  RH  086%=      5-min Rain = 0
KDVS 171105Z 31007KT M04/M06 A3011 RMK A01 T10361056  RH  086%=      5-min Rain = 0
KDVS 171110Z 31007KT M04/M06 A3011 RMK A01 T10361055  RH  087%=      5-min Rain = 0
KDVS 171115Z 30007KT M04/M05 A3011 RMK A01 T10351054  RH  087%=      5-min Rain = 0
KDVS 171120Z 31006KT M04/M05 A3011 RMK A01 T10351054  RH  087%=      5-min Rain = 0
KDVS 171125Z 32006KT M04/M05 A3012 RMK A01 T10351054  RH  087%=      5-min Rain = 0
KDVS 171130Z 31007KT M04/M05 A3012 RMK A01 T10351053  RH  087%=      5-min Rain = 0
KDVS 171135Z 31007KT M03/M05 A3012 RMK A01 T10331053  RH  086%=      5-min Rain = 0
KDVS 171140Z 31006KT M03/M05 A3012 RMK A01 T10341054  RH  086%=      5-min Rain = 0
KDVS 171145Z 32006KT M04/M06 A3012 RMK A01 T10351055  RH  086%=      5-min Rain = 0
KDVS 171150Z 32007KT M03/M06 A3012 RMK A01 T10341056  RH  085%=      5-min Rain = 0
KDVS 171155Z 31007KT M03/M06 A3011 RMK A01 T10341057  RH  085%=      5-min Rain = 0
KDVS 171200Z 31007KT M03/M06 A3011 RMK A01 T10341057  RH  084%=      5-min Rain = 0
KDVS 171205Z 31007KT M04/M06 A3011 RMK A01 T10351057  RH  085%=      5-min Rain = 0
KDVS 171210Z 31007KT M04/M06 A3011 RMK A01 T10361057  RH  085%=      5-min Rain = 0
KDVS 171215Z 31007KT M04/M06 A3012 RMK A01 T10381058  RH  086%=      5-min Rain = 0
KDVS 171220Z 31007KT M04/M06 A3012 RMK A01 T10381057  RH  087%=      5-min Rain = 0
KDVS 171225Z 31007KT M04/M06 A3012 RMK A01 T10381057  RH  087%=      5-min Rain = 0
KDVS 171230Z 31007KT M04/M06 A3012 RMK A01 T10381057  RH  087%=      5-min Rain = 0
KDVS 171235Z 31007KT M04/M06 A3012 RMK A01 T10381057  RH  087%=      5-min Rain = 0
KDVS 171240Z 31007KT M04/M06 A3012 RMK A01 T10371056  RH  087%=      5-min Rain = 0
KDVS 171245Z 32007KT M04/M06 A3012 RMK A01 T10351056  RH  085%=      5-min Rain = 0
KDVS 171250Z 32007KT M04/M06 A3012 RMK A01 T10351058  RH  084%=      5-min Rain = 0
KDVS 171255Z 32008KT M03/M06 A3012 RMK A01 T10341058  RH  084%=      5-min Rain = 0
KDVS 171300Z 32007KT M03/M06 A3013 RMK A01 T10341058  RH  083%=      5-min Rain = 0
KDVS 171305Z 32008KT M03/M06 A3013 RMK A01 T10341059  RH  083%=      5-min Rain = 0
KDVS 171310Z 32008KT M03/M06 A3014 RMK A01 T10331059  RH  083%=      5-min Rain = 0
KDVS 171315Z 32008KT M03/M06 A3014 RMK A01 T10321059  RH  082%=      5-min Rain = 0
KDVS 171320Z 33007KT M03/M06 A3014 RMK A01 T10311060  RH  080%=      5-min Rain = 0
KDVS 171325Z 34007KT M03/M06 A3014 RMK A01 T10311061  RH  080%=      5-min Rain = 0
KDVS 171330Z 33007KT M03/M06 A3014 RMK A01 T10311062  RH  079%=      5-min Rain = 0
KDVS 171335Z 33007KT M03/M06 A3014 RMK A01 T10331063  RH  080%=      5-min Rain = 0
KDVS 171340Z 33007KT M03/M06 A3014 RMK A01 T10341063  RH  081%=      5-min Rain = 0
KDVS 171345Z 33007KT M03/M06 A3014 RMK A01 T10341062  RH  081%=      5-min Rain = 0
KDVS 171350Z 33007KT M04/M06 A3013 RMK A01 T10351063  RH  081%=      5-min Rain = 0
KDVS 171355Z 33007KT M03/M06 A3013 RMK A01 T10341063  RH  081%=      5-min Rain = 0
KDVS 171400Z 33007KT M03/M06 A3013 RMK A01 T10341062  RH  081%=      5-min Rain = 0
KDVS 171405Z 33007KT M03/M06 A3014 RMK A01 T10331062  RH  080%=      5-min Rain = 0
KDVS 171410Z 33006KT M03/M06 A3014 RMK A01 T10321062  RH  080%=      5-min Rain = 0
KDVS 171415Z 34007KT M03/M06 A3014 RMK A01 T10311062  RH  079%=      5-min Rain = 0
KDVS 171420Z 34008KT M03/M06 A3014 RMK A01 T10281062  RH  078%=      5-min Rain = 0
KDVS 171425Z 35007KT M03/M06 A3014 RMK A01 T10281063  RH  077%=      5-min Rain = 0
KDVS 171430Z 35008KT M03/M06 A3014 RMK A01 T10281062  RH  078%=      5-min Rain = 0
KDVS 171435Z 36007KT M03/M06 A3015 RMK A01 T10261060  RH  078%=      5-min Rain = 0
KDVS 171440Z 00008KT M02/M06 A3015 RMK A01 T10221057  RH  077%=      5-min Rain = 0
KDVS 171445Z 00007KT M02/M06 A3015 RMK A01 T10191056  RH  076%=      5-min Rain = 0
KDVS 171450Z 01006KT M02/M06 A3015 RMK A01 T10171055  RH  076%=      5-min Rain = 0
KDVS 171455Z 01006KT M01/M05 A3015 RMK A01 T10141052  RH  076%=      5-min Rain = 0
KDVS 171500Z 01006KT M01/M05 A3015 RMK A01 T10111049  RH  076%=      5-min Rain = 0
KDVS 171505Z 01006KT M01/M05 A3015 RMK A01 T10051045  RH  075%=      5-min Rain = 0
KDVS 171510Z 01006KT M00/M04 A3015 RMK A01 T10021043  RH  074%=      5-min Rain = 0
KDVS 171515Z 02006KT 00/M04 A3015 RMK A01 T00011041  RH  074%=      5-min Rain = 0
KDVS 171520Z 02007KT 00/M04 A3016 RMK A01 T00041037  RH  074%=      5-min Rain = 0
KDVS 171525Z 02007KT 01/M03 A3016 RMK A01 T00081034  RH  074%=      5-min Rain = 0
KDVS 171530Z 02007KT 01/M03 A3016 RMK A01 T00121031  RH  074%=      5-min Rain = 0
KDVS 171535Z 03009KT 01/M03 A3016 RMK A01 T00141032  RH  072%=      5-min Rain = 0
KDVS 171540Z 03009KT 02/M03 A3017 RMK A01 T00171030  RH  071%=      5-min Rain = 0
KDVS 171545Z 03010KT 02/M03 A3017 RMK A01 T00201028  RH  071%=      5-min Rain = 0
KDVS 171550Z 04009KT 02/M03 A3017 RMK A01 T00211028  RH  070%=      5-min Rain = 0
KDVS 171555Z 04008KT 02/M03 A3017 RMK A01 T00231026  RH  070%=      5-min Rain = 0
KDVS 171600Z 05008KT 03/M03 A3016 RMK A01 T00251025  RH  070%=      5-min Rain = 0
KDVS 171605Z 05008KT 03/M03 A3016 RMK A01 T00251026  RH  070%=      5-min Rain = 0
KDVS 171610Z 06009KT 03/M03 A3017 RMK A01 T00281025  RH  069%=      5-min Rain = 0
KDVS 171615Z 06008KT 03/M02 A3017 RMK A01 T00331021  RH  068%=      5-min Rain = 0
KDVS 171620Z 06009KT 04/M02 A3017 RMK A01 T00361023  RH  066%=      5-min Rain = 0
KDVS 171625Z 07008KT 04/M02 A3017 RMK A01 T00381022  RH  065%=      5-min Rain = 0
KDVS 171630Z 08009KT 04/M02 A3017 RMK A01 T00421022  RH  064%=      5-min Rain = 0
KDVS 171635Z 07008KT 04/M02 A3017 RMK A01 T00441022  RH  063%=      5-min Rain = 0
KDVS 171640Z 07008KT 05/M02 A3017 RMK A01 T00451024  RH  061%=      5-min Rain = 0
KDVS 171645Z 08007KT 05/M02 A3017 RMK A01 T00471023  RH  061%=      5-min Rain = 0
KDVS 171650Z 08006KT 05/M02 A3017 RMK A01 T00491022  RH  061%=      5-min Rain = 0
KDVS 171655Z 09008KT 05/M02 A3017 RMK A01 T00501024  RH  060%=      5-min Rain = 0
KDVS 171700Z 10008KT 05/M03 A3017 RMK A01 T00521025  RH  058%=      5-min Rain = 0
KDVS 171705Z 10007KT 06/M02 A3017 RMK A01 T00561024  RH  057%=      5-min Rain = 0
KDVS 171710Z 08007KT 06/M02 A3017 RMK A01 T00581022  RH  057%=      5-min Rain = 0
KDVS 171715Z 08007KT 06/M03 A3018 RMK A01 T00581026  RH  055%=      5-min Rain = 0
KDVS 171720Z 09007KT 06/M03 A3018 RMK A01 T00601025  RH  055%=      5-min Rain = 0
KDVS 171725Z 09007KT 06/M03 A3018 RMK A01 T00631025  RH  054%=      5-min Rain = 0
KDVS 171730Z 13006KT 07/M03 A3018 RMK A01 T00651028  RH  052%=      5-min Rain = 0
KDVS 171735Z 14006KT 07/M03 A3017 RMK A01 T00691027  RH  051%=      5-min Rain = 0
KDVS 171740Z 13004KT 07/M03 A3017 RMK A01 T00691031  RH  049%=      5-min Rain = 0
KDVS 171745Z 12005KT 07/M03 A3017 RMK A01 T00741030  RH  048%=      5-min Rain = 0
KDVS 171750Z 12006KT 07/M03 A3017 RMK A01 T00731031  RH  048%=      5-min Rain = 0
KDVS 171755Z 13006KT 07/M04 A3017 RMK A01 T00741035  RH  046%=      5-min Rain = 0
KDVS 171800Z 11004KT 07/M04 A3017 RMK A01 T00721037  RH  046%=      5-min Rain = 0
KDVS 171805Z 08004KT 07/M04 A3017 RMK A01 T00731035  RH  046%=      5-min Rain = 0
KDVS 171810Z 11005KT 08/M03 A3017 RMK A01 T00781027  RH  048%=      5-min Rain = 0
KDVS 171815Z 11004KT 08/M03 A3016 RMK A01 T00781031  RH  046%=      5-min Rain = 0
KDVS 171820Z 08004KT 08/M03 A3016 RMK A01 T00811025  RH  047%=      5-min Rain = 0
KDVS 171825Z 11004KT 08/M03 A3016 RMK A01 T00831026  RH  046%=      5-min Rain = 0
KDVS 171830Z 12005KT 09/M03 A3015 RMK A01 T00851028  RH  045%=      5-min Rain = 0
KDVS 171835Z 13006KT 09/M03 A3015 RMK A01 T00861030  RH  044%=      5-min Rain = 0
KDVS 171840Z 13006KT 09/M03 A3015 RMK A01 T00881031  RH  043%=      5-min Rain = 0
KDVS 171845Z 13007KT 09/M03 A3014 RMK A01 T00891033  RH  042%=      5-min Rain = 0
KDVS 171850Z 11007KT 09/M03 A3014 RMK A01 T00901033  RH  042%=      5-min Rain = 0
KDVS 171855Z 12006KT 09/M04 A3013 RMK A01 T00891040  RH  040%=      5-min Rain = 0
KDVS 171900Z 12007KT 09/M04 A3013 RMK A01 T00891036  RH  041%=      5-min Rain = 0
KDVS 171905Z 11006G11KT 09/M04 A3013 RMK A01 T00891036  RH  041%=      5-min Rain = 0
KDVS 171910Z 12006KT 09/M03 A3012 RMK A01 T00931031  RH  042%=      5-min Rain = 0
KDVS 171915Z 12007KT 09/M03 A3012 RMK A01 T00931031  RH  042%=      5-min Rain = 0
KDVS 171920Z 11006KT 09/M03 A3012 RMK A01 T00931034  RH  041%=      5-min Rain = 0
KDVS 171925Z 11006KT 10/M03 A3011 RMK A01 T00971032  RH  040%=      5-min Rain = 0
KDVS 171930Z 10008KT 10/M04 A3011 RMK A01 T00951035  RH  040%=      5-min Rain = 0
KDVS 171935Z 11007KT 10/M04 A3011 RMK A01 T00971038  RH  038%=      5-min Rain = 0
KDVS 171940Z 13006KT 10/M03 A301 RMK A01 T01001034  RH  039%=      5-min Rain = 0
KDVS 171945Z 11007KT 10/M03 A301 RMK A01 T00991034  RH  039%=      5-min Rain = 0
KDVS 171950Z 11006KT 10/M04 A301 RMK A01 T00991036  RH  039%=      5-min Rain = 0
KDVS 171955Z 13004KT 10/M04 A301 RMK A01 T01021042  RH  036%=      5-min Rain = 0
KDVS 172000Z 14006KT 11/M03 A3009 RMK A01 T01061034  RH  037%=      5-min Rain = 0
KDVS 172005Z 13008KT 11/M03 A3009 RMK A01 T01061033  RH  038%=      5-min Rain = 0
KDVS 172010Z 13005KT 11/M04 A3008 RMK A01 T01051040  RH  036%=      5-min Rain = 0
KDVS 172015Z 12004KT 11/M04 A3008 RMK A01 T01061043  RH  035%=      5-min Rain = 0
KDVS 172020Z 10003KT 11/M05 A3008 RMK A01 T01051048  RH  034%=      5-min Rain = 0
KDVS 172025Z 11004KT 11/M05 A3007 RMK A01 T01061045  RH  034%=      5-min Rain = 0
KDVS 172030Z 13006KT 11/M04 A3007 RMK A01 T01081044  RH  034%=      5-min Rain = 0
KDVS 172035Z 10004KT 11/M04 A3007 RMK A01 T01101043  RH  034%=      5-min Rain = 0
KDVS 172040Z 10005KT 11/M05 A3007 RMK A01 T01081045  RH  034%=      5-min Rain = 0
KDVS 172045Z 13005KT 11/M04 A3007 RMK A01 T01111041  RH  034%=      5-min Rain = 0
KDVS 172050Z 12005KT 11/M04 A3007 RMK A01 T01131042  RH  033%=      5-min Rain = 0
KDVS 172055Z 11005KT 12/M04 A3007 RMK A01 T01151038  RH  034%=      5-min Rain = 0
KDVS 172100Z 11005KT 11/M04 A3007 RMK A01 T01131042  RH  034%=      5-min Rain = 0
KDVS 172105Z 10005KT 11/M04 A3007 RMK A01 T01111042  RH  034%=      5-min Rain = 0
KDVS 172110Z 15004KT 11/M04 A3007 RMK A01 T01141042  RH  033%=      5-min Rain = 0
KDVS 172115Z 14004KT 12/M04 A3007 RMK A01 T01161042  RH  033%=      5-min Rain = 0
KDVS 172120Z 13004KT 12/M04 A3007 RMK A01 T01171043  RH  033%=      5-min Rain = 0
KDVS 172125Z 17005KT 12/M04 A3007 RMK A01 T01181044  RH  032%=      5-min Rain = 0
KDVS 172130Z 20004KT 12/M05 A3007 RMK A01 T01171046  RH  032%=      5-min Rain = 0
KDVS 172135Z 20003KT 12/M05 A3008 RMK A01 T01171049  RH  031%=      5-min Rain = 0
KDVS 172140Z 22004KT 12/M05 A3007 RMK A01 T01171046  RH  032%=      5-min Rain = 0
KDVS 172145Z 16004G9KT 12/M04 A3007 RMK A01 T01191042  RH  032%=      5-min Rain = 0
KDVS 172150Z 18002KT 12/M05 A3007 RMK A01 T01201047  RH  031%=      5-min Rain = 0
KDVS 172155Z 17002KT 12/M05 A3007 RMK A01 T01221047  RH  031%=      5-min Rain = 0
KDVS 172200Z 22002KT 13/M05 A3007 RMK A01 T01251046  RH  030%=      5-min Rain = 0
KDVS 172205Z 25004KT 12/M05 A3007 RMK A01 T01201046  RH  031%=      5-min Rain = 0
KDVS 172210Z 25003KT 12/M05 A3007 RMK A01 T01181048  RH  031%=      5-min Rain = 0
KDVS 172215Z 19004KT 12/M04 A3007 RMK A01 T01201041  RH  032%=      5-min Rain = 0
KDVS 172220Z 18005KT 12/M04 A3007 RMK A01 T01201040  RH  033%=      5-min Rain = 0
KDVS 172225Z 19004KT 12/M04 A3007 RMK A01 T01181041  RH  033%=      5-min Rain = 0
KDVS 172230Z 17004KT 12/M04 A3007 RMK A01 T01201040  RH  033%=      5-min Rain = 0
KDVS 172235Z 19003KT 12/M04 A3007 RMK A01 T01171043  RH  032%=      5-min Rain = 0
KDVS 172240Z 21004KT 12/M04 A3007 RMK A01 T01181042  RH  033%=      5-min Rain = 0
KDVS 172245Z 21003KT 12/M05 A3007 RMK A01 T01171047  RH  032%=      5-min Rain = 0
KDVS 172250Z 19002KT 12/M05 A3007 RMK A01 T01181045  RH  032%=      5-min Rain = 0
KDVS 172255Z 21003KT 12/M05 A3007 RMK A01 T01201045  RH  031%=      5-min Rain = 0
KDVS 172300Z 17002KT 12/M05 A3007 RMK A01 T01191049  RH  031%=      5-min Rain = 0
KDVS 172305Z 18001KT 12/M05 A3007 RMK A01 T01211046  RH  031%=      5-min Rain = 0
KDVS 172310Z 16001KT 12/M05 A3007 RMK A01 T01231045  RH  031%=      5-min Rain = 0
KDVS 172315Z 17001KT 12/M05 A3007 RMK A01 T01241047  RH  030%=      5-min Rain = 0
KDVS 172320Z 14002KT 12/M05 A3007 RMK A01 T01201047  RH  031%=      5-min Rain = 0
KDVS 172325Z 15002KT 12/M05 A3007 RMK A01 T01191049  RH  030%=      5-min Rain = 0
KDVS 172330Z 17001KT 12/M05 A3007 RMK A01 T01191045  RH  031%=      5-min Rain = 0
KDVS 172335Z 10002KT 12/M04 A3007 RMK A01 T01161044  RH  032%=      5-min Rain = 0
KDVS 172340Z 13003KT 11/M04 A3007 RMK A01 T01121043  RH  033%=      5-min Rain = 0
KDVS 172345Z 14003KT 11/M04 A3007 RMK A01 T01091037  RH  036%=      5-min Rain = 0
KDVS 172350Z 13004KT 11/M03 A3007 RMK A01 T01051034  RH  038%=      5-min Rain = 0
KDVS 172355Z 13004KT 10/M03 A3007 RMK A01 T01021031  RH  039%=      5-min Rain = 0
KDVS 180000Z 13004KT 10/M03 A3007 RMK A01 T00971031  RH  041%=      5-min Rain = 0
KDVS 180005Z 12005KT 09/M03 A3006 RMK A01 T00891031  RH  043%=      5-min Rain = 0
KDVS 180010Z 12006KT 08/M03 A3006 RMK A01 T00801029  RH  047%=      5-min Rain = 0
KDVS 180015Z 13006KT 07/M03 A3006 RMK A01 T00721027  RH  050%=      5-min Rain = 0
KDVS 180020Z 13006KT 07/M03 A3006 RMK A01 T00651027  RH  052%=      5-min Rain = 0
KDVS 180025Z 12006KT 06/M03 A3006 RMK A01 T00631025  RH  054%=      5-min Rain = 0
KDVS 180030Z 11007KT 06/M02 A3006 RMK A01 T00581024  RH  056%=      5-min Rain = 0
KDVS 180035Z 11006KT 05/M03 A3006 RMK A01 T00521025  RH  058%=      5-min Rain = 0
KDVS 180040Z 11006KT 05/M03 A3006 RMK A01 T00511026  RH  058%=      5-min Rain = 0
KDVS 180045Z 12006KT 05/M03 A3006 RMK A01 T00511026  RH  058%=      5-min Rain = 0
KDVS 180050Z 11006KT 05/M03 A3006 RMK A01 T00491026  RH  059%=      5-min Rain = 0
KDVS 180055Z 12006KT 05/M03 A3006 RMK A01 T00501027  RH  058%=      5-min Rain = 0
KDVS 180100Z 12006KT 05/M03 A3007 RMK A01 T00491028  RH  058%=      5-min Rain = 0
KDVS 180105Z 12005KT 05/M03 A3007 RMK A01 T00481028  RH  058%=      5-min Rain = 0
KDVS 180110Z 12006KT 05/M03 A3007 RMK A01 T00461028  RH  059%=      5-min Rain = 0
KDVS 180115Z 12006KT 05/M03 A3007 RMK A01 T00471027  RH  059%=      5-min Rain = 0
KDVS 180120Z 12006KT 05/M03 A3006 RMK A01 T00471028  RH  059%=      5-min Rain = 0
KDVS 180125Z 12006KT 04/M03 A3006 RMK A01 T00441028  RH  060%=      5-min Rain = 0
KDVS 180130Z 11007KT 04/M03 A3006 RMK A01 T00411028  RH  061%=      5-min Rain = 0
KDVS 180135Z 12007KT 04/M03 A3006 RMK A01 T00371030  RH  062%=      5-min Rain = 0
KDVS 180140Z 12007KT 03/M03 A3006 RMK A01 T00341030  RH  063%=      5-min Rain = 0
KDVS 180145Z 12007KT 03/M03 A3006 RMK A01 T00341030  RH  064%=      5-min Rain = 0
KDVS 180150Z 12007KT 03/M03 A3006 RMK A01 T00331029  RH  064%=      5-min Rain = 0
KDVS 180155Z 11007KT 03/M03 A3006 RMK A01 T00311029  RH  065%=      5-min Rain = 0
KDVS 180200Z 12007KT 03/M03 A3006 RMK A01 T00301029  RH  065%=      5-min Rain = 0
KDVS 180205Z 12007KT 03/M03 A3005 RMK A01 T00291029  RH  066%=      5-min Rain = 0
KDVS 180210Z 12007KT 03/M03 A3006 RMK A01 T00281029  RH  067%=      5-min Rain = 0
KDVS 180215Z 12007KT 03/M03 A3006 RMK A01 T00251029  RH  068%=      5-min Rain = 0
KDVS 180220Z 12006KT 02/M03 A3006 RMK A01 T00231029  RH  069%=      5-min Rain = 0
KDVS 180225Z 12006KT 02/M03 A3005 RMK A01 T00231029  RH  069%=      5-min Rain = 0
KDVS 180230Z 13006KT 02/M03 A3005 RMK A01 T00211030  RH  069%=      5-min Rain = 0
KDVS 180235Z 13007KT 02/M03 A3005 RMK A01 T00181029  RH  071%=      5-min Rain = 0
KDVS 180240Z 14007KT 02/M03 A3005 RMK A01 T00171029  RH  072%=      5-min Rain = 0
KDVS 180245Z 14008KT 02/M03 A3005 RMK A01 T00151030  RH  072%=      5-min Rain = 0
KDVS 180250Z 14009KT 01/M03 A3005 RMK A01 T00131032  RH  073%=      5-min Rain = 0
KDVS 180255Z 14009KT 01/M03 A3005 RMK A01 T00111032  RH  073%=      5-min Rain = 0
KDVS 180300Z 14009KT 01/M03 A3005 RMK A01 T00091033  RH  074%=      5-min Rain = 0
KDVS 180305Z 14008KT 01/M03 A3005 RMK A01 T00071034  RH  075%=      5-min Rain = 0
KDVS 180310Z 14007KT 00/M04 A3005 RMK A01 T00041035  RH  076%=      5-min Rain = 0
KDVS 180315Z 14007KT 00/M03 A3005 RMK A01 T00031034  RH  076%=      5-min Rain = 0
KDVS 180320Z 15008KT 00/M03 A3004 RMK A01 T00031034  RH  077%=      5-min Rain = 0
KDVS 180325Z 15008KT 01/M03 A3004 RMK A01 T00061031  RH  076%=      5-min Rain = 0
KDVS 180330Z 15007KT 01/M03 A3004 RMK A01 T00071032  RH  075%=      5-min Rain = 0
KDVS 180335Z 15007KT 01/M03 A3004 RMK A01 T00051034  RH  076%=      5-min Rain = 0
KDVS 180340Z 15007KT 01/M03 A3004 RMK A01 T00061032  RH  076%=      5-min Rain = 0
KDVS 180345Z 16007KT 01/M03 A3004 RMK A01 T00081032  RH  075%=      5-min Rain = 0
KDVS 180350Z 16007KT 01/M03 A3004 RMK A01 T00081033  RH  075%=      5-min Rain = 0
KDVS 180355Z 17007KT 01/M03 A3004 RMK A01 T00091032  RH  074%=      5-min Rain = 0
KDVS 180400Z 17008KT 01/M03 A3004 RMK A01 T00121032  RH  073%=      5-min Rain = 0
KDVS 180405Z 17007KT 01/M03 A3004 RMK A01 T00131033  RH  072%=      5-min Rain = 0
KDVS 180410Z 17007KT 01/M03 A3004 RMK A01 T00131033  RH  072%=      5-min Rain = 0
KDVS 180415Z 18007KT 01/M03 A3004 RMK A01 T00141034  RH  071%=      5-min Rain = 0
KDVS 180420Z 18007KT 01/M03 A3004 RMK A01 T00121033  RH  072%=      5-min Rain = 0
KDVS 180425Z 18008KT 01/M03 A3004 RMK A01 T00131033  RH  072%=      5-min Rain = 0
KDVS 180430Z 17008KT 01/M04 A3004 RMK A01 T00121035  RH  071%=      5-min Rain = 0
KDVS 180435Z 17007KT 01/M04 A3004 RMK A01 T00111036  RH  071%=      5-min Rain = 0
KDVS 180440Z 17007KT 01/M04 A3003 RMK A01 T00101036  RH  071%=      5-min Rain = 0
KDVS 180445Z 17007KT 01/M04 A3003 RMK A01 T00091036  RH  072%=      5-min Rain = 0
KDVS 180450Z 17006KT 01/M04 A3003 RMK A01 T00081037  RH  073%=      5-min Rain = 0
KDVS 180455Z 18007KT 01/M04 A3003 RMK A01 T00071036  RH  073%=      5-min Rain = 0
KDVS 180500Z 18006KT 01/M04 A3003 RMK A01 T00061037  RH  074%=      5-min Rain = 0
KDVS 180505Z 19006KT 00/M04 A3003 RMK A01 T00041037  RH  074%=      5-min Rain = 0
KDVS 180510Z 19007KT 00/M04 A3003 RMK A01 T00041037  RH  075%=      5-min Rain = 0
KDVS 180515Z 19007KT 01/M04 A3003 RMK A01 T00051036  RH  074%=      5-min Rain = 0
KDVS 180520Z 19007KT 00/M04 A3003 RMK A01 T00021037  RH  075%=      5-min Rain = 0
KDVS 180525Z 19007KT M00/M04 A3003 RMK A01 T10021037  RH  077%=      5-min Rain = 0
KDVS 180530Z 19007KT M00/M04 A3003 RMK A01 T10021036  RH  078%=      5-min Rain = 0
KDVS 180535Z 19007KT M00/M04 A3002 RMK A01 T10031036  RH  079%=      5-min Rain = 0
KDVS 180540Z 19008KT M00/M04 A3002 RMK A01 T10031035  RH  079%=      5-min Rain = 0
KDVS 180545Z 19008KT M00/M04 A3002 RMK A01 T10011036  RH  078%=      5-min Rain = 0
KDVS 180550Z 20008KT M00/M04 A3001 RMK A01 T10021036  RH  078%=      5-min Rain = 0
KDVS 180555Z 20008KT M00/M04 A3001 RMK A01 T10021035  RH  079%=      5-min Rain = 0

Page generated in 0.0136 seconds.